sensor_id;sensor_type;location;lat;lon;timestamp;pressure;altitude;pressure_sealevel;temperature;humidity
71666;BME280;59503;53.486;10.196;2023-07-13T00:01:15;101286.16;;;15.19;100.00
71666;BME280;59503;53.486;10.196;2023-07-13T00:03:40;101289.63;;;15.13;100.00
71666;BME280;59503;53.486;10.196;2023-07-13T00:06:07;101281.72;;;15.04;100.00
71666;BME280;59503;53.486;10.196;2023-07-13T00:08:32;101285.63;;;15.00;100.00
71666;BME280;59503;53.486;10.196;2023-07-13T00:10:58;101283.97;;;14.91;100.00
71666;BME280;59503;53.486;10.196;2023-07-13T00:13:24;101288.63;;;14.87;100.00
71666;BME280;59503;53.486;10.196;2023-07-13T00:15:49;101284.72;;;14.85;100.00
71666;BME280;59503;53.486;10.196;2023-07-13T00:18:14;101282.31;;;14.83;100.00
71666;BME280;59503;53.486;10.196;2023-07-13T00:20:40;101283.88;;;14.81;100.00
71666;BME280;59503;53.486;10.196;2023-07-13T00:23:06;101287.31;;;14.71;100.00
71666;BME280;59503;53.486;10.196;2023-07-13T00:25:32;101288.03;;;14.64;100.00
71666;BME280;59503;53.486;10.196;2023-07-13T00:27:57;101292.25;;;14.58;100.00
71666;BME280;59503;53.486;10.196;2023-07-13T00:30:23;101283.22;;;14.54;100.00
71666;BME280;59503;53.486;10.196;2023-07-13T00:32:48;101284.38;;;14.53;100.00
71666;BME280;59503;53.486;10.196;2023-07-13T00:35:14;101278.13;;;14.53;100.00
71666;BME280;59503;53.486;10.196;2023-07-13T00:37:40;101275.72;;;14.48;100.00
71666;BME280;59503;53.486;10.196;2023-07-13T00:40:07;101290.56;;;14.47;100.00
71666;BME280;59503;53.486;10.196;2023-07-13T00:42:33;101288.16;;;14.42;100.00
71666;BME280;59503;53.486;10.196;2023-07-13T00:45:03;101279.88;;;14.35;100.00
71666;BME280;59503;53.486;10.196;2023-07-13T00:47:29;101286.03;;;14.28;100.00
71666;BME280;59503;53.486;10.196;2023-07-13T00:49:54;101289.06;;;14.23;100.00
71666;BME280;59503;53.486;10.196;2023-07-13T00:52:19;101287.91;;;14.21;100.00
71666;BME280;59503;53.486;10.196;2023-07-13T00:54:46;101288.22;;;14.16;100.00
71666;BME280;59503;53.486;10.196;2023-07-13T00:57:15;101290.91;;;14.12;100.00
71666;BME280;59503;53.486;10.196;2023-07-13T00:59:44;101283.84;;;14.11;100.00
71666;BME280;59503;53.486;10.196;2023-07-13T01:02:11;101283.09;;;14.11;100.00
71666;BME280;59503;53.486;10.196;2023-07-13T01:04:37;101284.31;;;14.17;100.00
71666;BME280;59503;53.486;10.196;2023-07-13T01:07:04;101290.97;;;14.16;100.00
71666;BME280;59503;53.486;10.196;2023-07-13T01:09:31;101290.88;;;14.09;100.00
71666;BME280;59503;53.486;10.196;2023-07-13T01:11:56;101292.03;;;14.08;100.00
71666;BME280;59503;53.486;10.196;2023-07-13T01:14:22;101286.16;;;14.06;100.00
71666;BME280;59503;53.486;10.196;2023-07-13T01:16:48;101283.75;;;14.01;100.00
71666;BME280;59503;53.486;10.196;2023-07-13T01:19:32;101289.22;;;14.01;100.00
71666;BME280;59503;53.486;10.196;2023-07-13T01:22:03;101279.75;;;13.95;100.00
71666;BME280;59503;53.486;10.196;2023-07-13T01:24:28;101285.25;;;13.98;100.00
71666;BME280;59503;53.486;10.196;2023-07-13T01:26:54;101283.66;;;13.94;100.00
71666;BME280;59503;53.486;10.196;2023-07-13T01:29:20;101285.16;;;13.91;100.00
71666;BME280;59503;53.486;10.196;2023-07-13T01:31:46;101288.19;;;13.83;100.00
71666;BME280;59503;53.486;10.196;2023-07-13T01:34:12;101290.88;;;13.79;100.00
71666;BME280;59503;53.486;10.196;2023-07-13T01:36:37;101287.25;;;13.71;100.00
71666;BME280;59503;53.486;10.196;2023-07-13T01:39:03;101289.97;;;13.71;100.00
71666;BME280;59503;53.486;10.196;2023-07-13T01:41:29;101289.97;;;13.71;100.00
71666;BME280;59503;53.486;10.196;2023-07-13T01:43:54;101287.97;;;13.68;100.00
71666;BME280;59503;53.486;10.196;2023-07-13T01:46:19;101294.19;;;13.65;100.00
71666;BME280;59503;53.486;10.196;2023-07-13T01:48:45;101282.41;;;13.61;100.00
71666;BME280;59503;53.486;10.196;2023-07-13T01:51:10;101287.81;;;13.58;100.00
71666;BME280;59503;53.486;10.196;2023-07-13T01:53:36;101293.22;;;13.54;100.00
71666;BME280;59503;53.486;10.196;2023-07-13T01:56:01;101292.41;;;13.50;100.00
71666;BME280;59503;53.486;10.196;2023-07-13T01:58:27;101293.97;;;13.51;100.00
71666;BME280;59503;53.486;10.196;2023-07-13T02:00:52;101287.34;;;13.52;100.00
71666;BME280;59503;53.486;10.196;2023-07-13T02:03:18;101289.69;;;13.50;100.00
71666;BME280;59503;53.486;10.196;2023-07-13T02:05:45;101283.72;;;13.45;100.00
71666;BME280;59503;53.486;10.196;2023-07-13T02:08:10;101288.34;;;13.41;100.00
71666;BME280;59503;53.486;10.196;2023-07-13T02:10:37;101292.25;;;13.40;100.00
71666;BME280;59503;53.486;10.196;2023-07-13T02:13:05;101301.53;;;13.35;100.00
71666;BME280;59503;53.486;10.196;2023-07-13T02:15:31;101293.66;;;13.30;100.00
71666;BME280;59503;53.486;10.196;2023-07-13T02:17:56;101295.22;;;13.31;100.00
71666;BME280;59503;53.486;10.196;2023-07-13T02:20:24;101301.78;;;13.27;100.00
71666;BME280;59503;53.486;10.196;2023-07-13T02:22:49;101300.16;;;13.22;100.00
71666;BME280;59503;53.486;10.196;2023-07-13T02:25:15;101295.47;;;13.23;100.00
71666;BME280;59503;53.486;10.196;2023-07-13T02:27:40;101291.94;;;13.22;100.00
71666;BME280;59503;53.486;10.196;2023-07-13T02:30:06;101298.16;;;13.19;100.00
71666;BME280;59503;53.486;10.196;2023-07-13T02:32:32;101299.75;;;13.20;100.00
71666;BME280;59503;53.486;10.196;2023-07-13T02:34:59;101294.91;;;13.10;100.00
71666;BME280;59503;53.486;10.196;2023-07-13T02:37:24;101304.34;;;13.16;100.00
71666;BME280;59503;53.486;10.196;2023-07-13T02:39:50;101306.72;;;13.18;100.00
71666;BME280;59503;53.486;10.196;2023-07-13T02:42:15;101305.50;;;13.15;100.00
71666;BME280;59503;53.486;10.196;2023-07-13T02:44:40;101304.28;;;13.13;100.00
71666;BME280;59503;53.486;10.196;2023-07-13T02:47:06;101291.44;;;13.13;100.00
71666;BME280;59503;53.486;10.196;2023-07-13T02:49:31;101294.16;;;13.13;100.00
71666;BME280;59503;53.486;10.196;2023-07-13T02:51:57;101299.56;;;13.10;100.00
71666;BME280;59503;53.486;10.196;2023-07-13T02:54:22;101295.59;;;13.07;100.00
71666;BME280;59503;53.486;10.196;2023-07-13T02:56:48;101303.41;;;13.05;100.00
71666;BME280;59503;53.486;10.196;2023-07-13T02:59:13;101294.69;;;13.00;100.00
71666;BME280;59503;53.486;10.196;2023-07-13T03:01:39;101298.50;;;12.95;100.00
71666;BME280;59503;53.486;10.196;2023-07-13T03:04:05;101303.09;;;12.91;100.00
71666;BME280;59503;53.486;10.196;2023-07-13T03:06:32;101309.66;;;12.87;100.00
71666;BME280;59503;53.486;10.196;2023-07-13T03:08:58;101301.84;;;12.85;100.00
71666;BME280;59503;53.486;10.196;2023-07-13T03:11:25;101302.25;;;12.87;100.00
71666;BME280;59503;53.486;10.196;2023-07-13T03:13:51;101304.97;;;12.87;100.00
71666;BME280;59503;53.486;10.196;2023-07-13T03:16:17;101308.50;;;12.88;100.00
71666;BME280;59503;53.486;10.196;2023-07-13T03:18:43;101299.94;;;12.89;100.00
71666;BME280;59503;53.486;10.196;2023-07-13T03:21:09;101300.31;;;12.88;100.00
71666;BME280;59503;53.486;10.196;2023-07-13T03:23:35;101302.63;;;12.86;100.00
71666;BME280;59503;53.486;10.196;2023-07-13T03:26:09;101310.03;;;12.85;100.00
71666;BME280;59503;53.486;10.196;2023-07-13T03:28:35;101304.16;;;12.83;100.00
71666;BME280;59503;53.486;10.196;2023-07-13T03:31:07;101302.97;;;12.84;100.00
71666;BME280;59503;53.486;10.196;2023-07-13T03:33:33;101298.69;;;12.83;100.00
71666;BME280;59503;53.486;10.196;2023-07-13T03:35:59;101303.28;;;12.79;100.00
71666;BME280;59503;53.486;10.196;2023-07-13T03:38:25;101304.50;;;12.82;100.00
71666;BME280;59503;53.486;10.196;2023-07-13T03:40:52;101312.63;;;12.78;100.00
71666;BME280;59503;53.486;10.196;2023-07-13T03:43:17;101300.56;;;12.79;100.00
71666;BME280;59503;53.486;10.196;2023-07-13T03:45:42;101306.44;;;12.81;100.00
71666;BME280;59503;53.486;10.196;2023-07-13T03:48:08;101306.00;;;12.79;100.00
71666;BME280;59503;53.486;10.196;2023-07-13T03:50:34;101316.97;;;12.83;100.00
71666;BME280;59503;53.486;10.196;2023-07-13T03:53:00;101313.16;;;12.87;100.00
71666;BME280;59503;53.486;10.196;2023-07-13T03:55:25;101314.38;;;12.90;100.00
71666;BME280;59503;53.486;10.196;2023-07-13T04:00:46;101313.16;;;13.06;100.00
71666;BME280;59503;53.486;10.196;2023-07-13T04:03:11;101312.41;;;13.09;100.00
71666;BME280;59503;53.486;10.196;2023-07-13T04:05:37;101313.22;;;13.10;100.00
71666;BME280;59503;53.486;10.196;2023-07-13T04:08:05;101321.88;;;13.15;100.00
71666;BME280;59503;53.486;10.196;2023-07-13T04:10:31;101321.16;;;13.18;100.00
71666;BME280;59503;53.486;10.196;2023-07-13T04:12:56;101317.69;;;13.21;100.00
71666;BME280;59503;53.486;10.196;2023-07-13T04:15:22;101314.59;;;13.23;100.00
71666;BME280;59503;53.486;10.196;2023-07-13T04:17:47;101315.09;;;13.28;100.00
71666;BME280;59503;53.486;10.196;2023-07-13T04:20:12;101306.16;;;13.31;100.00
71666;BME280;59503;53.486;10.196;2023-07-13T04:22:37;101312.47;;;13.35;100.00
71666;BME280;59503;53.486;10.196;2023-07-13T04:25:03;101314.03;;;13.36;100.00
71666;BME280;59503;53.486;10.196;2023-07-13T04:27:30;101312.59;;;13.46;100.00
71666;BME280;59503;53.486;10.196;2023-07-13T04:29:56;101317.38;;;13.52;100.00
71666;BME280;59503;53.486;10.196;2023-07-13T04:32:21;101317.88;;;13.58;100.00
71666;BME280;59503;53.486;10.196;2023-07-13T04:34:46;101315.19;;;13.61;100.00
71666;BME280;59503;53.486;10.196;2023-07-13T04:37:12;101307.00;;;13.61;100.00
71666;BME280;59503;53.486;10.196;2023-07-13T04:39:37;101302.78;;;13.67;100.00
71666;BME280;59503;53.486;10.196;2023-07-13T04:42:04;101302.84;;;13.71;100.00
71666;BME280;59503;53.486;10.196;2023-07-13T04:44:29;101308.34;;;13.74;100.00
71666;BME280;59503;53.486;10.196;2023-07-13T04:46:54;101302.56;;;13.80;100.00
71666;BME280;59503;53.486;10.196;2023-07-13T04:49:20;101303.41;;;13.84;100.00
71666;BME280;59503;53.486;10.196;2023-07-13T04:51:45;101301.88;;;13.86;100.00
71666;BME280;59503;53.486;10.196;2023-07-13T04:54:11;101304.28;;;13.91;100.00
71666;BME280;59503;53.486;10.196;2023-07-13T04:56:36;101303.19;;;13.96;100.00
71666;BME280;59503;53.486;10.196;2023-07-13T04:59:01;101305.28;;;14.06;100.00
71666;BME280;59503;53.486;10.196;2023-07-13T05:01:27;101308.00;;;14.06;100.00
71666;BME280;59503;53.486;10.196;2023-07-13T05:03:52;101313.59;;;14.13;100.00
71666;BME280;59503;53.486;10.196;2023-07-13T05:06:18;101312.47;;;14.17;100.00
71666;BME280;59503;53.486;10.196;2023-07-13T05:08:43;101320.28;;;14.19;100.00
71666;BME280;59503;53.486;10.196;2023-07-13T05:11:08;101322.34;;;14.25;100.00
71666;BME280;59503;53.486;10.196;2023-07-13T05:13:34;101332.59;;;14.32;100.00
71666;BME280;59503;53.486;10.196;2023-07-13T05:16:02;101324.47;;;14.39;100.00
71666;BME280;59503;53.486;10.196;2023-07-13T05:18:29;101335.50;;;14.46;100.00
71666;BME280;59503;53.486;10.196;2023-07-13T05:21:06;101334.38;;;14.50;100.00
71666;BME280;59503;53.486;10.196;2023-07-13T05:23:33;101336.44;;;14.60;100.00
71666;BME280;59503;53.486;10.196;2023-07-13T05:25:59;101340.84;;;14.72;100.00
71666;BME280;59503;53.486;10.196;2023-07-13T05:28:25;101351.56;;;14.84;100.00
71666;BME280;59503;53.486;10.196;2023-07-13T05:30:51;101355.19;;;14.95;100.00
71666;BME280;59503;53.486;10.196;2023-07-13T05:33:17;101351.03;;;15.08;100.00
71666;BME280;59503;53.486;10.196;2023-07-13T05:35:43;101345.25;;;15.20;100.00
71666;BME280;59503;53.486;10.196;2023-07-13T05:38:08;101356.75;;;15.36;100.00
71666;BME280;59503;53.486;10.196;2023-07-13T05:40:33;101362.09;;;15.62;100.00
71666;BME280;59503;53.486;10.196;2023-07-13T05:42:59;101345.75;;;15.83;100.00
71666;BME280;59503;53.486;10.196;2023-07-13T05:45:24;101350.22;;;16.05;100.00
71666;BME280;59503;53.486;10.196;2023-07-13T05:47:55;101353.91;;;16.38;100.00
71666;BME280;59503;53.486;10.196;2023-07-13T05:50:20;101346.97;;;16.65;100.00
71666;BME280;59503;53.486;10.196;2023-07-13T05:52:46;101353.31;;;16.93;100.00
71666;BME280;59503;53.486;10.196;2023-07-13T05:55:11;101343.13;;;17.08;100.00
71666;BME280;59503;53.486;10.196;2023-07-13T05:57:37;101350.59;;;17.18;100.00
71666;BME280;59503;53.486;10.196;2023-07-13T06:00:02;101360.78;;;17.14;100.00
71666;BME280;59503;53.486;10.196;2023-07-13T06:02:28;101360.78;;;17.17;100.00
71666;BME280;59503;53.486;10.196;2023-07-13T06:04:53;101361.59;;;17.18;100.00
71666;BME280;59503;53.486;10.196;2023-07-13T06:07:19;101362.38;;;17.29;100.00
71666;BME280;59503;53.486;10.196;2023-07-13T06:09:44;101358.06;;;17.42;100.00
71666;BME280;59503;53.486;10.196;2023-07-13T06:12:09;101359.63;;;17.71;100.00
71666;BME280;59503;53.486;10.196;2023-07-13T06:14:35;101359.63;;;17.89;100.00
71666;BME280;59503;53.486;10.196;2023-07-13T06:17:00;101364.31;;;18.02;100.00
71666;BME280;59503;53.486;10.196;2023-07-13T06:19:26;101364.66;;;18.18;100.00
71666;BME280;59503;53.486;10.196;2023-07-13T06:21:51;101372.06;;;18.42;100.00
71666;BME280;59503;53.486;10.196;2023-07-13T06:24:16;101368.06;;;18.61;100.00
71666;BME280;59503;53.486;10.196;2023-07-13T06:26:42;101371.25;;;18.52;100.00
71666;BME280;59503;53.486;10.196;2023-07-13T06:29:07;101367.63;;;18.70;100.00
71666;BME280;59503;53.486;10.196;2023-07-13T06:31:32;101377.19;;;19.13;100.00
71666;BME280;59503;53.486;10.196;2023-07-13T06:33:58;101376.88;;;19.58;100.00
71666;BME280;59503;53.486;10.196;2023-07-13T06:36:23;101381.47;;;19.72;100.00
71666;BME280;59503;53.486;10.196;2023-07-13T06:38:48;101375.03;;;19.89;100.00
71666;BME280;59503;53.486;10.196;2023-07-13T06:41:14;101378.69;;;20.16;100.00
71666;BME280;59503;53.486;10.196;2023-07-13T06:43:39;101379.47;;;20.17;100.00
71666;BME280;59503;53.486;10.196;2023-07-13T06:46:05;101388.88;;;20.23;100.00
71666;BME280;59503;53.486;10.196;2023-07-13T06:48:30;101387.75;;;20.17;100.00
71666;BME280;59503;53.486;10.196;2023-07-13T06:50:56;101386.78;;;20.34;100.00
71666;BME280;59503;53.486;10.196;2023-07-13T06:53:22;101392.03;;;20.21;100.00
71666;BME280;59503;53.486;10.196;2023-07-13T06:55:48;101383.06;;;20.47;100.00
71666;BME280;59503;53.486;10.196;2023-07-13T06:58:15;101376.25;;;20.55;100.00
71666;BME280;59503;53.486;10.196;2023-07-13T07:00:41;101386.28;;;20.72;100.00
71666;BME280;59503;53.486;10.196;2023-07-13T07:03:07;101383.25;;;20.63;100.00
71666;BME280;59503;53.486;10.196;2023-07-13T07:05:32;101387.75;;;20.50;100.00
71666;BME280;59503;53.486;10.196;2023-07-13T07:07:58;101386.44;;;20.28;100.00
71666;BME280;59503;53.486;10.196;2023-07-13T07:10:24;101391.41;;;20.03;100.00
71666;BME280;59503;53.486;10.196;2023-07-13T07:12:49;101401.97;;;19.71;100.00
71666;BME280;59503;53.486;10.196;2023-07-13T07:15:15;101396.47;;;19.67;100.00
71666;BME280;59503;53.486;10.196;2023-07-13T07:17:40;101394.00;;;19.80;100.00
71666;BME280;59503;53.486;10.196;2023-07-13T07:20:06;101398.25;;;19.88;100.00
71666;BME280;59503;53.486;10.196;2023-07-13T07:22:32;101401.03;;;19.88;100.00
71666;BME280;59503;53.486;10.196;2023-07-13T07:24:58;101402.84;;;20.05;100.00
71666;BME280;59503;53.486;10.196;2023-07-13T07:27:24;101401.41;;;20.31;100.00
71666;BME280;59503;53.486;10.196;2023-07-13T07:29:50;101404.59;;;20.29;100.00
71666;BME280;59503;53.486;10.196;2023-07-13T07:32:15;101402.34;;;20.17;100.00
71666;BME280;59503;53.486;10.196;2023-07-13T07:34:41;101404.38;;;20.06;100.00
71666;BME280;59503;53.486;10.196;2023-07-13T07:37:06;101405.75;;;20.28;100.00
71666;BME280;59503;53.486;10.196;2023-07-13T07:39:31;101402.28;;;20.58;100.00
71666;BME280;59503;53.486;10.196;2023-07-13T07:41:57;101404.34;;;20.80;100.00
71666;BME280;59503;53.486;10.196;2023-07-13T07:44:23;101401.28;;;21.05;100.00
71666;BME280;59503;53.486;10.196;2023-07-13T07:46:48;101403.56;;;21.37;100.00
71666;BME280;59503;53.486;10.196;2023-07-13T07:49:14;101395.75;;;21.55;100.00
71666;BME280;59503;53.486;10.196;2023-07-13T07:51:40;101400.56;;;21.74;92.90
71666;BME280;59503;53.486;10.196;2023-07-13T07:54:05;101396.72;;;21.91;93.37
71666;BME280;59503;53.486;10.196;2023-07-13T07:56:31;101395.28;;;21.83;93.66
71666;BME280;59503;53.486;10.196;2023-07-13T07:58:57;101405.03;;;21.91;89.14
71666;BME280;59503;53.486;10.196;2023-07-13T08:01:22;101406.09;;;21.51;92.69
71666;BME280;59503;53.486;10.196;2023-07-13T08:03:48;101406.16;;;21.21;98.58
71666;BME280;59503;53.486;10.196;2023-07-13T08:06:15;101400.53;;;21.01;97.99
71666;BME280;59503;53.486;10.196;2023-07-13T08:08:41;101402.41;;;20.77;99.06
71666;BME280;59503;53.486;10.196;2023-07-13T08:11:07;101398.59;;;20.68;100.00
71666;BME280;59503;53.486;10.196;2023-07-13T08:13:34;101392.31;;;20.64;100.00
71666;BME280;59503;53.486;10.196;2023-07-13T08:16:00;101397.25;;;21.10;99.20
71666;BME280;59503;53.486;10.196;2023-07-13T08:18:25;101390.50;;;21.11;95.29
71666;BME280;59503;53.486;10.196;2023-07-13T08:20:53;101392.50;;;21.60;96.41
71666;BME280;59503;53.486;10.196;2023-07-13T08:23:21;101398.03;;;21.60;93.39
71666;BME280;59503;53.486;10.196;2023-07-13T08:25:53;101397.81;;;21.74;91.79
71666;BME280;59503;53.486;10.196;2023-07-13T08:28:22;101398.50;;;22.01;92.71
71666;BME280;59503;53.486;10.196;2023-07-13T08:30:48;101382.41;;;22.35;89.05
71666;BME280;59503;53.486;10.196;2023-07-13T08:33:20;101387.88;;;23.13;88.21
71666;BME280;59503;53.486;10.196;2023-07-13T08:35:50;101393.13;;;23.27;80.97
71666;BME280;59503;53.486;10.196;2023-07-13T08:38:16;101387.47;;;23.63;83.99
71666;BME280;59503;53.486;10.196;2023-07-13T08:40:43;101389.31;;;24.14;75.46
71666;BME280;59503;53.486;10.196;2023-07-13T08:43:13;101407.63;;;24.69;79.21
71666;BME280;59503;53.486;10.196;2023-07-13T08:45:47;101401.69;;;24.67;74.20
71666;BME280;59503;53.486;10.196;2023-07-13T08:48:19;101403.25;;;24.55;71.96
71666;BME280;59503;53.486;10.196;2023-07-13T08:50:55;101402.44;;;24.14;68.93
71666;BME280;59503;53.486;10.196;2023-07-13T08:53:24;101395.63;;;23.54;72.43
71666;BME280;59503;53.486;10.196;2023-07-13T08:55:58;101401.78;;;23.46;74.58
71666;BME280;59503;53.486;10.196;2023-07-13T08:58:25;101396.31;;;23.74;73.29
71666;BME280;59503;53.486;10.196;2023-07-13T09:04:02;101390.50;;;24.71;66.78
71666;BME280;59503;53.486;10.196;2023-07-13T09:06:57;101393.19;;;23.88;66.10
71666;BME280;59503;53.486;10.196;2023-07-13T09:15:31;101400.63;;;22.75;72.90
71666;BME280;59503;53.486;10.196;2023-07-13T09:18:10;101399.88;;;23.43;74.32
71666;BME280;59503;53.486;10.196;2023-07-13T09:20:47;101393.25;;;23.85;70.77
71666;BME280;59503;53.486;10.196;2023-07-13T09:23:20;101404.22;;;24.49;67.19
71666;BME280;59503;53.486;10.196;2023-07-13T09:25:48;101400.97;;;25.17;64.23
71666;BME280;59503;53.486;10.196;2023-07-13T09:28:26;101390.69;;;25.77;60.09
71666;BME280;59503;53.486;10.196;2023-07-13T09:31:08;101394.56;;;25.79;54.23
71666;BME280;59503;53.486;10.196;2023-07-13T09:33:37;101387.22;;;25.38;56.51
71666;BME280;59503;53.486;10.196;2023-07-13T09:36:18;101391.50;;;24.07;62.81
71666;BME280;59503;53.486;10.196;2023-07-13T09:38:44;101381.56;;;24.63;61.41
71666;BME280;59503;53.486;10.196;2023-07-13T09:46:52;101395.19;;;24.04;64.22
71666;BME280;59503;53.486;10.196;2023-07-13T09:49:18;101398.50;;;24.27;69.21
71666;BME280;59503;53.486;10.196;2023-07-13T09:51:44;101411.06;;;24.32;62.84
71666;BME280;59503;53.486;10.196;2023-07-13T09:54:24;101396.50;;;23.67;62.75
71666;BME280;59503;53.486;10.196;2023-07-13T09:56:57;101401.97;;;23.39;67.07
71666;BME280;59503;53.486;10.196;2023-07-13T09:59:29;101392.88;;;22.47;67.38
71666;BME280;59503;53.486;10.196;2023-07-13T10:01:54;101398.06;;;22.84;69.42
71666;BME280;59503;53.486;10.196;2023-07-13T10:04:28;101406.41;;;23.00;68.92
71666;BME280;59503;53.486;10.196;2023-07-13T10:07:07;101398.50;;;23.67;68.45
71666;BME280;59503;53.486;10.196;2023-07-13T10:09:33;101395.78;;;23.79;65.14
71666;BME280;59503;53.486;10.196;2023-07-13T10:11:59;101395.19;;;24.45;57.92
71666;BME280;59503;53.486;10.196;2023-07-13T10:14:24;101392.88;;;24.97;57.96
71666;BME280;59503;53.486;10.196;2023-07-13T10:16:58;101395.84;;;25.65;56.85
71666;BME280;59503;53.486;10.196;2023-07-13T10:19:29;101391.75;;;26.47;48.28
71666;BME280;59503;53.486;10.196;2023-07-13T10:22:12;101387.78;;;26.57;50.83
71666;BME280;59503;53.486;10.196;2023-07-13T10:24:39;101375.09;;;26.87;48.35
71666;BME280;59503;53.486;10.196;2023-07-13T10:27:34;101380.50;;;26.81;49.75
71666;BME280;59503;53.486;10.196;2023-07-13T10:32:37;101387.41;;;26.46;50.48
71666;BME280;59503;53.486;10.196;2023-07-13T10:35:03;101382.09;;;26.18;48.97
71666;BME280;59503;53.486;10.196;2023-07-13T10:37:39;101379.31;;;25.84;49.19
71666;BME280;59503;53.486;10.196;2023-07-13T10:40:12;101382.34;;;24.64;52.79
71666;BME280;59503;53.486;10.196;2023-07-13T10:42:42;101391.97;;;23.73;54.75
71666;BME280;59503;53.486;10.196;2023-07-13T10:45:16;101392.53;;;23.36;58.08
71666;BME280;59503;53.486;10.196;2023-07-13T10:47:44;101383.88;;;23.14;58.17
71666;BME280;59503;53.486;10.196;2023-07-13T10:50:22;101386.81;;;22.91;61.13
71666;BME280;59503;53.486;10.196;2023-07-13T10:52:50;101384.50;;;22.70;62.72
71666;BME280;59503;53.486;10.196;2023-07-13T10:55:32;101392.31;;;22.36;64.67
71666;BME280;59503;53.486;10.196;2023-07-13T10:58:03;101393.53;;;22.74;62.81
71666;BME280;59503;53.486;10.196;2023-07-13T11:00:43;101385.72;;;23.05;60.80
71666;BME280;59503;53.486;10.196;2023-07-13T11:03:15;101387.75;;;23.53;60.45
71666;BME280;59503;53.486;10.196;2023-07-13T11:05:41;101388.19;;;23.96;54.88
71666;BME280;59503;53.486;10.196;2023-07-13T11:08:23;101382.81;;;24.21;56.73
71666;BME280;59503;53.486;10.196;2023-07-13T11:10:57;101384.50;;;24.72;51.32
71666;BME280;59503;53.486;10.196;2023-07-13T11:13:59;101393.09;;;24.49;50.81
71666;BME280;59503;53.486;10.196;2023-07-13T11:16:44;101378.63;;;24.95;51.72
71666;BME280;59503;53.486;10.196;2023-07-13T11:20:07;101385.09;;;25.42;50.85
71666;BME280;59503;53.486;10.196;2023-07-13T11:22:22;101381.97;;;25.40;48.57
71666;BME280;59503;53.486;10.196;2023-07-13T11:24:56;101381.09;;;24.93;52.36
71666;BME280;59503;53.486;10.196;2023-07-13T11:30:20;101400.84;;;24.29;53.56
71666;BME280;59503;53.486;10.196;2023-07-13T11:32:50;101394.09;;;24.14;52.34
71666;BME280;59503;53.486;10.196;2023-07-13T11:35:22;101394.19;;;24.39;54.19
71666;BME280;59503;53.486;10.196;2023-07-13T11:37:49;101391.97;;;24.88;51.85
71666;BME280;59503;53.486;10.196;2023-07-13T11:40:14;101390.31;;;25.40;50.85
71666;BME280;59503;53.486;10.196;2023-07-13T11:42:40;101386.84;;;25.61;50.37
71666;BME280;59503;53.486;10.196;2023-07-13T11:45:21;101392.94;;;26.16;46.05
71666;BME280;59503;53.486;10.196;2023-07-13T11:47:48;101387.47;;;26.12;47.58
71666;BME280;59503;53.486;10.196;2023-07-13T11:50:19;101392.22;;;26.46;45.36
71666;BME280;59503;53.486;10.196;2023-07-13T11:52:46;101392.03;;;26.92;41.67
71666;BME280;59503;53.486;10.196;2023-07-13T11:55:15;101391.19;;;26.31;41.80
71666;BME280;59503;53.486;10.196;2023-07-13T11:57:47;101398.22;;;26.23;41.51
71666;BME280;59503;53.486;10.196;2023-07-13T12:00:26;101394.69;;;26.96;41.82
71666;BME280;59503;53.486;10.196;2023-07-13T12:02:56;101388.38;;;27.44;41.91
71666;BME280;59503;53.486;10.196;2023-07-13T12:05:23;101393.09;;;27.65;42.32
71666;BME280;59503;53.486;10.196;2023-07-13T12:07:49;101393.41;;;27.85;41.32
71666;BME280;59503;53.486;10.196;2023-07-13T12:10:41;101390.72;;;27.64;42.66
71666;BME280;59503;53.486;10.196;2023-07-13T12:13:08;101386.50;;;27.41;42.14
71666;BME280;59503;53.486;10.196;2023-07-13T12:15:43;101387.31;;;27.20;42.86
71666;BME280;59503;53.486;10.196;2023-07-13T12:18:14;101383.97;;;25.87;43.66
71666;BME280;59503;53.486;10.196;2023-07-13T12:20:40;101375.94;;;26.66;40.73
71666;BME280;59503;53.486;10.196;2023-07-13T12:23:20;101386.50;;;26.49;41.23
71666;BME280;59503;53.486;10.196;2023-07-13T12:25:47;101389.06;;;25.54;44.87
71666;BME280;59503;53.486;10.196;2023-07-13T12:28:23;101393.31;;;25.33;43.81
71666;BME280;59503;53.486;10.196;2023-07-13T12:30:58;101394.66;;;25.04;45.81
71666;BME280;59503;53.486;10.196;2023-07-13T12:33:28;101451.75;;;24.54;47.19
71666;BME280;59503;53.486;10.196;2023-07-13T12:35:53;101450.56;;;23.47;53.44
71666;BME280;59503;53.486;10.196;2023-07-13T12:38:19;101473.03;;;22.15;63.23
71666;BME280;59503;53.486;10.196;2023-07-13T12:40:50;101488.22;;;21.01;79.68
71666;BME280;59503;53.486;10.196;2023-07-13T12:43:16;101487.41;;;19.23;100.00
71666;BME280;59503;53.486;10.196;2023-07-13T12:46:17;101517.56;;;18.23;100.00
71666;BME280;59503;53.486;10.196;2023-07-13T12:48:43;101530.88;;;17.47;100.00
71666;BME280;59503;53.486;10.196;2023-07-13T12:51:12;101524.47;;;17.15;100.00
71666;BME280;59503;53.486;10.196;2023-07-13T12:53:43;101539.34;;;17.07;100.00
71666;BME280;59503;53.486;10.196;2023-07-13T12:56:19;101552.25;;;16.96;100.00
71666;BME280;59503;53.486;10.196;2023-07-13T12:58:46;101554.22;;;17.02;100.00
71666;BME280;59503;53.486;10.196;2023-07-13T13:01:17;101546.66;;;16.82;100.00